createdAt,value
2022-10-16T00:01:41.720Z,38.10
2022-10-16T00:04:10.999Z,37.25
2022-10-16T00:06:40.256Z,36.78
2022-10-16T00:09:09.486Z,35.25
2022-10-16T00:14:08.770Z,32.08
2022-10-16T00:16:38.059Z,34.08
2022-10-16T00:19:09.884Z,33.55
2022-10-16T00:21:38.226Z,33.65
2022-10-16T00:24:09.492Z,32.58
2022-10-16T00:26:38.670Z,31.40
2022-10-16T00:29:06.948Z,31.73
2022-10-16T00:31:35.563Z,34.17
2022-10-16T00:34:03.573Z,32.53
2022-10-16T00:36:33.426Z,33.60
2022-10-16T00:41:34.886Z,30.67
2022-10-16T00:44:03.494Z,31.85
2022-10-16T00:46:37.279Z,32.10
2022-10-16T00:49:07.208Z,30.50
2022-10-16T00:51:38.921Z,32.08
2022-10-16T00:54:10.620Z,29.20
2022-10-16T00:56:39.861Z,30.38
2022-10-16T00:59:10.313Z,29.43
2022-10-16T01:01:39.007Z,30.73
2022-10-16T01:04:07.078Z,29.50
2022-10-16T01:06:43.896Z,29.48
2022-10-16T01:09:16.801Z,30.38
2022-10-16T01:11:50.196Z,28.85
2022-10-16T01:14:23.483Z,27.52
2022-10-16T01:16:55.764Z,28.38
2022-10-16T01:19:29.491Z,28.75
2022-10-16T01:22:01.324Z,26.10
2022-10-16T01:24:34.556Z,27.27
2022-10-16T01:27:16.306Z,27.48
2022-10-16T01:29:52.296Z,26.40
2022-10-16T01:32:22.747Z,27.30
2022-10-16T01:34:53.518Z,23.05
2022-10-16T01:37:25.710Z,27.80
2022-10-16T01:39:56.968Z,26.30
2022-10-16T01:42:31.721Z,23.80
2022-10-16T01:45:01.738Z,25.58
2022-10-16T01:47:34.036Z,25.88
2022-10-16T01:50:06.085Z,23.38
2022-10-16T01:52:37.046Z,23.17
2022-10-16T01:55:07.418Z,23.17
2022-10-16T01:57:38.940Z,22.73
2022-10-16T02:00:09.435Z,21.15
2022-10-16T02:02:39.026Z,22.02
2022-10-16T02:05:10.977Z,21.67
2022-10-16T02:07:39.544Z,20.77
2022-10-16T02:10:08.423Z,19.98
2022-10-16T02:12:40.540Z,21.10
2022-10-16T02:15:09.387Z,19.95
2022-10-16T02:17:37.869Z,20.15
2022-10-16T02:20:06.651Z,20.15
2022-10-16T02:22:37.254Z,19.83
2022-10-16T02:25:08.821Z,20.73
2022-10-16T02:27:43.039Z,21.23
2022-10-16T02:33:53.344Z,21.50
2022-10-16T02:36:22.462Z,21.42
2022-10-16T02:38:50.849Z,21.80
2022-10-16T02:41:23.344Z,21.73
2022-10-16T02:43:53.234Z,21.48
2022-10-16T02:46:21.666Z,21.30
2022-10-16T02:48:50.475Z,22.33
2022-10-16T02:51:20.725Z,21.23
2022-10-16T02:58:53.497Z,20.75
2022-10-16T03:01:22.537Z,20.65
2022-10-16T03:03:50.752Z,19.42
2022-10-16T03:06:19.346Z,19.35
2022-10-16T03:08:47.999Z,20.55
2022-10-16T03:11:16.589Z,21.40
2022-10-16T03:13:44.843Z,20.52
2022-10-16T03:16:15.631Z,21.27
2022-10-16T03:18:44.009Z,20.65
2022-10-16T03:21:12.275Z,21.90
2022-10-16T03:23:40.427Z,21.63
2022-10-16T03:26:09.159Z,20.70
2022-10-16T03:28:38.018Z,20.02
2022-10-16T03:31:07.344Z,19.95
2022-10-16T03:33:37.530Z,20.33
2022-10-16T03:36:05.951Z,20.15
2022-10-16T03:38:34.125Z,19.73
2022-10-16T03:41:02.919Z,21.10
2022-10-16T03:43:31.794Z,19.80
2022-10-16T03:46:01.190Z,19.35
2022-10-16T03:48:29.332Z,20.15
2022-10-16T03:50:59.498Z,20.17
2022-10-16T03:53:27.893Z,20.67
2022-10-16T03:55:56.530Z,19.92
2022-10-16T03:58:24.922Z,19.75
2022-10-16T04:00:53.627Z,19.23
2022-10-16T04:03:22.627Z,19.15
2022-10-16T04:05:50.980Z,19.65
2022-10-16T04:08:20.904Z,20.02
2022-10-16T04:10:49.154Z,19.70
2022-10-16T04:13:17.649Z,20.20
2022-10-16T04:15:47.058Z,19.85
2022-10-16T04:18:15.269Z,19.88
2022-10-16T04:20:43.649Z,19.55
2022-10-16T04:23:12.042Z,20.70
2022-10-16T04:25:42.490Z,20.35
2022-10-16T04:28:10.830Z,20.55
2022-10-16T04:30:39.944Z,19.98
2022-10-16T04:33:08.410Z,20.48
2022-10-16T04:38:05.285Z,21.00
2022-10-16T04:40:37.404Z,20.20
2022-10-16T04:43:07.083Z,21.13
2022-10-16T04:45:35.495Z,19.25
2022-10-16T04:48:03.633Z,21.50
2022-10-16T04:50:31.884Z,21.25
2022-10-16T04:53:00.032Z,22.13
2022-10-16T04:55:28.423Z,22.15
2022-10-16T04:57:56.519Z,21.80
2022-10-16T05:00:26.244Z,23.45
2022-10-16T05:05:22.443Z,21.60
2022-10-16T05:07:50.934Z,23.73
2022-10-16T05:10:19.523Z,24.75
2022-10-16T05:12:48.151Z,24.75
2022-10-16T05:15:16.466Z,25.48
2022-10-16T05:17:45.939Z,25.63
2022-10-16T05:20:14.476Z,25.73
2022-10-16T05:22:42.712Z,25.52
2022-10-16T05:25:11.233Z,24.70
2022-10-16T05:27:39.272Z,24.58
2022-10-16T05:30:11.555Z,26.15
2022-10-16T05:32:40.567Z,27.30
2022-10-16T05:35:12.666Z,26.40
2022-10-16T05:37:40.998Z,26.80
2022-10-16T05:40:10.103Z,27.27
2022-10-16T05:42:38.298Z,26.67
2022-10-16T05:45:08.496Z,28.25
2022-10-16T05:47:36.506Z,27.27
2022-10-16T05:50:05.553Z,27.70
2022-10-16T05:52:35.043Z,26.50
2022-10-16T05:55:03.709Z,26.98
2022-10-16T05:57:32.340Z,25.67
2022-10-16T06:00:00.693Z,25.65
2022-10-16T06:02:28.847Z,26.95
2022-10-16T06:04:57.191Z,27.17
2022-10-16T06:07:25.911Z,27.15
2022-10-16T06:09:56.156Z,25.27
2022-10-16T06:12:24.730Z,26.17
2022-10-16T06:14:53.611Z,26.55
2022-10-16T06:17:21.811Z,26.45
2022-10-16T06:19:50.805Z,26.87
2022-10-16T06:22:19.247Z,25.65
2022-10-16T06:24:48.979Z,25.60
2022-10-16T06:27:19.357Z,25.02
2022-10-16T06:29:48.257Z,25.17
2022-10-16T06:32:16.682Z,27.25
2022-10-16T06:34:45.377Z,24.45
2022-10-16T06:37:13.807Z,26.25
2022-10-16T06:39:43.604Z,26.10
2022-10-16T06:42:12.354Z,26.33
2022-10-16T06:44:43.504Z,25.85
2022-10-16T06:47:13.011Z,25.25
2022-10-16T06:49:42.303Z,26.10
2022-10-16T06:52:11.028Z,24.73
2022-10-16T06:54:42.303Z,25.65
2022-10-16T06:57:11.965Z,25.08
2022-10-16T06:59:43.090Z,25.27
2022-10-16T07:02:16.576Z,22.50
2022-10-16T07:04:45.066Z,22.70
2022-10-16T07:07:15.090Z,23.08
2022-10-16T07:09:48.535Z,22.60
2022-10-16T07:12:17.677Z,24.33
2022-10-16T07:14:47.073Z,22.80
2022-10-16T07:17:17.240Z,23.95
2022-10-16T07:19:45.832Z,22.20
2022-10-16T07:22:14.082Z,24.15
2022-10-16T07:24:42.358Z,21.85
2022-10-16T07:27:11.248Z,23.95
2022-10-16T07:29:40.258Z,22.60
2022-10-16T07:32:09.199Z,22.45
2022-10-16T07:34:39.361Z,21.15
2022-10-16T07:37:07.815Z,21.65
2022-10-16T07:39:36.572Z,20.40
2022-10-16T07:42:05.966Z,21.77
2022-10-16T07:44:34.952Z,20.88
2022-10-16T07:47:03.060Z,20.45
2022-10-16T07:49:31.896Z,20.02
2022-10-16T07:52:01.770Z,20.42
2022-10-16T07:54:30.216Z,20.83
2022-10-16T07:56:59.080Z,21.17
2022-10-16T07:59:28.306Z,22.13
2022-10-16T08:01:56.465Z,21.67
2022-10-16T08:04:24.798Z,20.88
2022-10-16T08:06:53.029Z,20.60
2022-10-16T08:09:22.827Z,19.77
2022-10-16T08:11:51.217Z,20.38
2022-10-16T08:14:20.398Z,20.83
2022-10-16T08:16:48.386Z,20.40
2022-10-16T08:19:17.089Z,22.27
2022-10-16T08:21:45.462Z,20.63
2022-10-16T08:24:15.058Z,19.57
2022-10-16T08:26:46.335Z,20.00
2022-10-16T08:29:15.901Z,20.50
2022-10-16T08:31:44.590Z,20.63
2022-10-16T08:34:13.181Z,21.25
2022-10-16T08:36:41.821Z,20.77
2022-10-16T08:39:11.069Z,20.05
2022-10-16T08:41:54.194Z,21.05
2022-10-16T08:44:30.141Z,20.40
2022-10-16T08:47:02.630Z,20.85
2022-10-16T08:49:32.362Z,21.08
2022-10-16T08:52:01.556Z,18.17
2022-10-16T08:56:58.501Z,19.45
2022-10-16T08:59:29.031Z,19.77
2022-10-16T09:01:57.549Z,18.55
2022-10-16T09:04:36.526Z,18.77
2022-10-16T09:07:09.311Z,17.35
2022-10-16T09:09:46.393Z,19.17
2022-10-16T09:12:18.322Z,18.75
2022-10-16T09:14:58.611Z,19.40
2022-10-16T09:17:32.780Z,18.73
2022-10-16T09:20:10.418Z,17.98
2022-10-16T09:22:38.963Z,18.17
2022-10-16T09:25:14.086Z,17.83
2022-10-16T09:27:42.508Z,19.85
2022-10-16T09:30:20.520Z,17.10
2022-10-16T09:32:50.648Z,16.33
2022-10-16T09:35:20.338Z,17.17
2022-10-16T09:37:50.519Z,17.35
2022-10-16T09:40:27.134Z,16.20
2022-10-16T09:42:59.430Z,15.43
2022-10-16T09:45:29.494Z,15.63
2022-10-16T09:47:58.042Z,16.17
2022-10-16T09:50:27.786Z,14.88
2022-10-16T09:53:10.778Z,15.35
2022-10-16T09:55:49.856Z,15.10
2022-10-16T09:58:18.264Z,14.93
2022-10-16T10:00:53.467Z,14.63
2022-10-16T10:03:35.939Z,14.45
2022-10-16T10:06:07.255Z,14.50
2022-10-16T10:08:35.612Z,14.88
2022-10-16T10:11:03.900Z,14.23
2022-10-16T10:13:32.524Z,13.93
2022-10-16T10:16:02.363Z,14.53
2022-10-16T10:18:33.023Z,15.15
2022-10-16T10:21:01.898Z,13.93
2022-10-16T10:23:31.434Z,15.23
2022-10-16T10:26:02.209Z,14.23
2022-10-16T10:28:40.913Z,14.85
2022-10-16T10:31:12.414Z,14.35
2022-10-16T10:33:44.943Z,14.38
2022-10-16T10:36:23.226Z,15.50
2022-10-16T10:38:52.683Z,15.45
2022-10-16T10:41:31.375Z,15.30
2022-10-16T10:44:04.479Z,14.07
2022-10-16T10:46:38.256Z,14.07
2022-10-16T10:49:21.215Z,13.32
2022-10-16T10:51:56.934Z,14.48
2022-10-16T10:54:28.778Z,14.07
2022-10-16T10:56:59.918Z,14.90
2022-10-16T10:59:34.967Z,14.40
2022-10-16T11:02:06.662Z,15.77
2022-10-16T11:04:52.229Z,15.73
2022-10-16T11:07:23.435Z,13.82
2022-10-16T11:09:54.925Z,15.40
2022-10-16T11:12:26.242Z,13.70
2022-10-16T11:14:58.912Z,13.50
2022-10-16T11:17:30.924Z,13.80
2022-10-16T11:20:01.056Z,13.65
2022-10-16T11:22:31.653Z,13.27
2022-10-16T11:25:04.108Z,13.25
2022-10-16T11:27:37.662Z,13.57
2022-10-16T11:30:08.078Z,14.10
2022-10-16T11:32:45.759Z,13.40
2022-10-16T11:35:20.099Z,12.93
2022-10-16T11:37:49.424Z,11.80
2022-10-16T11:40:21.483Z,12.00
2022-10-16T11:42:53.085Z,12.40
2022-10-16T11:45:26.598Z,11.02
2022-10-16T11:48:00.133Z,11.45
2022-10-16T11:50:31.688Z,10.55
2022-10-16T11:53:03.199Z,10.77
2022-10-16T11:55:34.832Z,11.40
2022-10-16T11:58:06.196Z,10.63
2022-10-16T12:00:39.859Z,10.65
2022-10-16T12:03:15.169Z,9.93
2022-10-16T12:05:53.645Z,10.57
2022-10-16T12:08:22.058Z,10.07
2022-10-16T12:10:50.766Z,9.18
2022-10-16T12:13:35.976Z,9.30
2022-10-16T12:16:07.898Z,8.70
2022-10-16T12:18:37.728Z,8.30
2022-10-16T12:21:08.088Z,8.32
2022-10-16T12:23:39.891Z,8.63
2022-10-16T12:26:08.035Z,8.73
2022-10-16T12:28:37.398Z,8.50
2022-10-16T12:31:07.088Z,8.02
2022-10-16T12:33:36.976Z,7.63
2022-10-16T12:36:09.479Z,7.63
2022-10-16T12:38:41.528Z,7.68
2022-10-16T12:41:11.728Z,7.68
2022-10-16T12:43:43.522Z,6.57
2022-10-16T12:46:25.700Z,6.82
2022-10-16T12:49:06.521Z,7.00
2022-10-16T12:51:40.075Z,6.97
2022-10-16T12:54:15.023Z,6.40
2022-10-16T12:56:47.748Z,6.43
2022-10-16T12:59:21.962Z,6.60
2022-10-16T13:02:07.269Z,5.53
2022-10-16T13:04:47.113Z,5.57
2022-10-16T13:07:26.727Z,6.40
2022-10-16T13:10:01.729Z,5.70
2022-10-16T13:12:45.032Z,5.75
2022-10-16T13:15:26.565Z,4.95
2022-10-16T13:17:59.919Z,4.53
2022-10-16T13:20:31.472Z,5.40
2022-10-16T13:23:06.640Z,6.10
2022-10-16T13:25:41.777Z,5.97
2022-10-16T13:28:10.777Z,5.13
2022-10-16T13:30:41.924Z,4.38
2022-10-16T13:33:15.614Z,4.75
2022-10-16T13:35:50.325Z,5.63
2022-10-16T13:38:21.419Z,5.07
2022-10-16T13:40:56.853Z,5.35
2022-10-16T13:43:27.811Z,5.65
2022-10-16T13:45:57.142Z,5.45
2022-10-16T13:48:25.269Z,5.78
2022-10-16T13:51:03.566Z,5.83
2022-10-16T13:53:34.286Z,6.20
2022-10-16T13:56:04.313Z,6.63
2022-10-16T13:58:32.783Z,6.80
2022-10-16T14:01:02.854Z,6.78
2022-10-16T14:03:32.502Z,6.55
2022-10-16T14:06:02.801Z,6.72
2022-10-16T14:08:32.725Z,7.72
2022-10-16T14:11:03.579Z,7.20
2022-10-16T14:13:33.975Z,7.28
2022-10-16T14:16:05.042Z,7.28
2022-10-16T14:18:40.507Z,7.28
2022-10-16T14:21:10.105Z,7.32
2022-10-16T14:26:18.812Z,6.53
2022-10-16T14:28:47.933Z,7.38
2022-10-16T14:31:28.256Z,6.55
2022-10-16T14:33:56.693Z,6.78
2022-10-16T14:36:26.005Z,7.15
2022-10-16T14:38:59.211Z,6.80
2022-10-16T14:41:29.476Z,6.97
2022-10-16T14:43:58.310Z,7.72
2022-10-16T14:46:32.185Z,6.90
2022-10-16T14:49:03.122Z,6.97
2022-10-16T14:51:32.144Z,6.53
2022-10-16T14:54:00.628Z,7.18
2022-10-16T14:56:33.263Z,7.00
2022-10-16T14:59:02.999Z,6.85
2022-10-16T15:01:31.330Z,6.88
2022-10-16T15:03:59.819Z,7.00
2022-10-16T15:06:28.807Z,7.47
2022-10-16T15:08:57.654Z,6.88
2022-10-16T15:11:26.256Z,6.78
2022-10-16T15:13:56.095Z,6.03
2022-10-16T15:16:24.552Z,6.88
2022-10-16T15:18:54.036Z,6.22
2022-10-16T15:21:25.113Z,6.78
2022-10-16T15:23:53.684Z,6.47
2022-10-16T15:26:22.536Z,7.45
2022-10-16T15:28:50.760Z,7.43
2022-10-16T15:31:22.875Z,7.53
2022-10-16T15:33:54.817Z,7.18
2022-10-16T15:36:30.691Z,7.28
2022-10-16T15:38:59.259Z,6.88
2022-10-16T15:41:28.018Z,5.93
2022-10-16T15:43:56.202Z,7.47
2022-10-16T15:46:26.501Z,7.32
2022-10-16T15:48:58.791Z,7.63
2022-10-16T15:51:28.565Z,8.02
2022-10-16T15:53:57.743Z,7.50
2022-10-16T15:58:55.451Z,8.27
2022-10-16T16:01:27.032Z,7.45
2022-10-16T16:03:55.820Z,7.18
2022-10-16T16:06:25.320Z,8.57
2022-10-16T16:08:54.049Z,9.40
2022-10-16T16:11:24.344Z,9.70
2022-10-16T16:13:52.999Z,9.05
2022-10-16T16:16:22.166Z,9.32
2022-10-16T16:18:54.868Z,8.80
2022-10-16T16:21:23.633Z,9.13
2022-10-16T16:23:51.950Z,10.05
2022-10-16T16:26:27.260Z,8.65
2022-10-16T16:28:56.931Z,9.30
2022-10-16T16:31:26.749Z,10.00
2022-10-16T16:33:57.467Z,10.77
2022-10-16T16:36:26.743Z,10.38
2022-10-16T16:38:54.841Z,9.73
2022-10-16T16:41:24.333Z,10.82
2022-10-16T16:43:52.780Z,9.95
2022-10-16T16:46:22.058Z,11.52
2022-10-16T16:48:51.464Z,11.23
2022-10-16T16:51:22.405Z,11.38
2022-10-16T16:53:52.532Z,11.52
2022-10-16T16:56:23.021Z,11.75
2022-10-16T16:58:52.502Z,11.30
2022-10-16T17:01:21.951Z,11.63
2022-10-16T17:03:53.083Z,12.07
2022-10-16T17:06:28.848Z,12.27
2022-10-16T17:08:58.387Z,11.85
2022-10-16T17:11:27.544Z,11.52
2022-10-16T17:13:57.298Z,11.75
2022-10-16T17:16:27.061Z,11.27
2022-10-16T17:18:56.220Z,95.95
2022-10-16T17:23:58.666Z,12.10
2022-10-16T17:26:27.553Z,11.73
2022-10-16T17:28:56.520Z,11.60
2022-10-16T17:31:26.042Z,12.32
2022-10-16T17:33:54.181Z,10.70
2022-10-16T17:36:23.170Z,11.65
2022-10-16T17:38:52.997Z,12.82
2022-10-16T17:43:51.318Z,12.57
2022-10-16T17:46:21.598Z,13.57
2022-10-16T17:48:50.574Z,15.25
2022-10-16T17:51:35.587Z,15.43
2022-10-16T17:54:04.352Z,14.95
2022-10-16T17:56:32.849Z,16.08
2022-10-16T17:59:03.541Z,13.07
2022-10-16T18:01:33.813Z,13.80
2022-10-16T18:04:05.300Z,13.82
2022-10-16T18:06:34.332Z,12.43
2022-10-16T18:09:02.626Z,14.30
2022-10-16T18:11:31.161Z,11.33
2022-10-16T18:14:00.452Z,11.43
2022-10-16T18:16:31.441Z,11.02
2022-10-16T18:19:00.212Z,10.90
2022-10-16T18:21:29.993Z,11.82
2022-10-16T18:23:59.482Z,11.40
2022-10-16T18:26:28.455Z,12.60
2022-10-16T18:28:58.641Z,10.40
2022-10-16T18:31:27.698Z,11.35
2022-10-16T18:33:57.578Z,13.30
2022-10-16T18:36:29.562Z,13.80
2022-10-16T18:38:58.530Z,13.38
2022-10-16T18:41:27.559Z,12.07
2022-10-16T18:43:56.316Z,12.23
2022-10-16T18:46:25.876Z,14.05
2022-10-16T18:48:54.522Z,13.20
2022-10-16T18:51:25.594Z,14.35
2022-10-16T18:53:54.791Z,13.23
2022-10-16T18:58:53.595Z,13.60
2022-10-16T19:01:22.692Z,14.80
2022-10-16T19:03:54.395Z,17.67
2022-10-16T19:06:22.947Z,19.58
2022-10-16T19:08:52.370Z,16.63
2022-10-16T19:11:21.785Z,15.27
2022-10-16T19:13:50.787Z,14.75
2022-10-16T19:16:21.254Z,14.25
2022-10-16T19:18:50.028Z,19.27
2022-10-16T19:21:18.948Z,19.80
2022-10-16T19:23:47.403Z,19.75
2022-10-16T19:26:17.906Z,20.10
2022-10-16T19:28:46.250Z,17.88
2022-10-16T19:31:17.984Z,20.20
2022-10-16T19:33:46.563Z,20.17
2022-10-16T19:36:15.803Z,20.08
2022-10-16T19:38:44.217Z,18.88
2022-10-16T19:41:13.689Z,18.37
2022-10-16T19:43:44.388Z,17.65
2022-10-16T19:46:13.726Z,16.85
2022-10-16T19:48:42.353Z,17.20
2022-10-16T19:51:12.325Z,16.80
2022-10-16T19:53:40.347Z,17.70
2022-10-16T19:56:13.311Z,18.73
2022-10-16T19:58:41.750Z,17.75
2022-10-16T20:01:11.640Z,17.52
2022-10-16T20:03:40.597Z,16.75
2022-10-16T20:06:10.963Z,18.05
2022-10-16T20:08:39.998Z,17.33
2022-10-16T20:11:11.166Z,15.77
2022-10-16T20:13:41.563Z,15.75
2022-10-16T20:16:13.471Z,15.40
2022-10-16T20:18:42.558Z,13.85
2022-10-16T20:21:11.643Z,14.85
2022-10-16T20:23:40.283Z,14.93
2022-10-16T20:26:11.723Z,16.95
2022-10-16T20:28:41.168Z,14.23
2022-10-16T20:33:39.749Z,15.57
2022-10-16T20:36:11.797Z,14.73
2022-10-16T20:38:40.166Z,14.60
2022-10-16T20:41:09.500Z,15.85
2022-10-16T20:43:40.792Z,16.00
2022-10-16T20:46:10.252Z,14.02
2022-10-16T20:48:44.320Z,14.63
2022-10-16T20:51:13.611Z,14.60
2022-10-16T20:53:41.839Z,15.23
2022-10-16T20:56:10.295Z,14.95
2022-10-16T20:58:38.416Z,14.65
2022-10-16T21:01:07.837Z,13.55
2022-10-16T21:06:08.613Z,12.85
2022-10-16T21:08:37.307Z,11.25
2022-10-16T21:11:12.297Z,11.90
2022-10-16T21:13:40.837Z,10.65
2022-10-16T21:16:09.541Z,9.65
2022-10-16T21:18:43.457Z,10.07
2022-10-16T21:21:21.105Z,10.25
2022-10-16T21:23:50.597Z,9.20
2022-10-16T21:26:23.637Z,9.05
2022-10-16T21:28:52.769Z,8.55
2022-10-16T21:31:22.207Z,8.48
2022-10-16T21:33:51.091Z,8.70
2022-10-16T21:36:23.353Z,7.55
2022-10-16T21:38:52.115Z,8.15
2022-10-16T21:41:21.722Z,7.72
2022-10-16T21:43:49.787Z,6.75
2022-10-16T21:46:18.682Z,7.35
2022-10-16T21:48:47.423Z,7.78
2022-10-16T21:51:15.847Z,7.22
2022-10-16T21:53:45.500Z,6.63
2022-10-16T21:56:14.846Z,6.63
2022-10-16T21:58:43.009Z,6.47
2022-10-16T22:01:12.445Z,6.82
2022-10-16T22:03:40.954Z,5.88
2022-10-16T22:06:10.600Z,7.47
2022-10-16T22:08:39.766Z,7.95
2022-10-16T22:11:11.345Z,7.43
2022-10-16T22:13:40.418Z,6.57
2022-10-16T22:16:09.014Z,7.35
2022-10-16T22:18:37.672Z,7.57
2022-10-16T22:21:06.512Z,6.90
2022-10-16T22:23:35.159Z,9.03
2022-10-16T22:26:05.895Z,6.55
2022-10-16T22:28:37.593Z,7.18
2022-10-16T22:31:07.131Z,7.82
2022-10-16T22:33:36.966Z,7.13
2022-10-16T22:36:07.178Z,8.20
2022-10-16T22:38:37.090Z,8.25
2022-10-16T22:41:08.130Z,7.55
2022-10-16T22:43:39.216Z,8.15
2022-10-16T22:46:08.835Z,7.78
2022-10-16T22:48:38.323Z,6.95
2022-10-16T22:51:07.926Z,7.45
2022-10-16T22:53:37.537Z,7.82
2022-10-16T22:56:06.293Z,6.45
2022-10-16T22:58:34.519Z,7.15
2022-10-16T23:01:04.794Z,6.70
2022-10-16T23:03:32.998Z,6.47
2022-10-16T23:06:05.502Z,8.13
2022-10-16T23:08:33.922Z,8.40
2022-10-16T23:11:06.693Z,8.52
2022-10-16T23:13:37.392Z,7.55
2022-10-16T23:16:08.784Z,6.95
2022-10-16T23:18:37.684Z,7.82
2022-10-16T23:21:06.890Z,7.32
2022-10-16T23:23:36.012Z,6.82
2022-10-16T23:26:04.974Z,7.53
2022-10-16T23:28:33.422Z,6.03
2022-10-16T23:31:04.874Z,6.93
2022-10-16T23:33:35.175Z,6.97
2022-10-16T23:36:05.765Z,6.10
2022-10-16T23:38:34.021Z,7.20
2022-10-16T23:41:02.924Z,7.63
2022-10-16T23:43:32.116Z,7.05
2022-10-16T23:46:03.196Z,7.65
2022-10-16T23:48:32.363Z,5.90
2022-10-16T23:51:02.596Z,5.65
2022-10-16T23:53:31.202Z,6.10
2022-10-16T23:56:00.104Z,6.55
2022-10-16T23:58:28.366Z,6.45
